JBU316 KJFK-KIND
Flight info
| Callsign | JBU316 |
|---|---|
| Flight time | 1h 57m |
| Altitude | 38000 |
| Route | RBV Q430 SAAME BRNAN Q42 HIDON RINTE SNKPT2 |
| Aircraft | A320/M-SDE3FGHIRWY/LB1 |
Departure
| Time | 2026-05-09 17:20 |
|---|---|
| Airport | John F. Kennedy International Airport (KJFK) |
Arrival
| Time | 2026-05-09 19:17 |
|---|---|
| Airport | Indianapolis International Airport (KIND) |
| Time | Latitude | Longitude | Altitude | Speed | Heading |
|---|---|---|---|---|---|
| 2026-05-09 16:52 | 40.64636 | -73.77354 | 21 ft | 0 kts | 180° |
| 2026-05-09 17:09 | 40.64641 | -73.77354 | 20 ft | 2 kts | 180° |
| 2026-05-09 17:09 | 40.64659 | -73.77354 | 22 ft | 2 kts | 180° |
| 2026-05-09 17:09 | 40.64676 | -73.77354 | 22 ft | 2 kts | 180° |
| 2026-05-09 17:10 | 40.64692 | -73.77351 | 21 ft | 1 kts | 155° |
| 2026-05-09 17:14 | 40.64681 | -73.77355 | 22 ft | 7 kts | 204° |
| 2026-05-09 17:14 | 40.64742 | -73.77392 | 20 ft | 22 kts | 30° |
| 2026-05-09 17:15 | 40.64835 | -73.77231 | 21 ft | 20 kts | 101° |
| 2026-05-09 17:15 | 40.64796 | -73.77139 | 21 ft | 3 kts | 102° |
| 2026-05-09 17:15 | 40.64815 | -73.77086 | 21 ft | 11 kts | 47° |
| 2026-05-09 17:15 | 40.64870 | -73.76997 | 21 ft | 19 kts | 56° |
| 2026-05-09 17:16 | 40.64961 | -73.76822 | 22 ft | 19 kts | 55° |
| 2026-05-09 17:17 | 40.65090 | -73.76440 | 24 ft | 0 kts | 128° |
| 2026-05-09 17:18 | 40.65088 | -73.76437 | 24 ft | 4 kts | 128° |
| 2026-05-09 17:18 | 40.65026 | -73.76361 | 24 ft | 15 kts | 173° |
| 2026-05-09 17:18 | 40.64944 | -73.76417 | 22 ft | 4 kts | 212° |
| 2026-05-09 17:18 | 40.64943 | -73.76417 | 22 ft | 0 kts | 212° |
| 2026-05-09 17:19 | 40.64772 | -73.76553 | 22 ft | 65 kts | 210° |
| 2026-05-09 17:19 | 40.64200 | -73.77000 | 21 ft | 123 kts | 211° |
| 2026-05-09 17:19 | 40.63359 | -73.77670 | 143 ft | 155 kts | 212° |
| 2026-05-09 17:20 | 40.62419 | -73.78423 | 734 ft | 160 kts | 210° |
| 2026-05-09 17:20 | 40.61399 | -73.79179 | 1287 ft | 176 kts | 213° |
| 2026-05-09 17:20 | 40.60287 | -73.80034 | 1690 ft | 199 kts | 214° |
| 2026-05-09 17:20 | 40.59044 | -73.81058 | 2211 ft | 222 kts | 214° |
| 2026-05-09 17:21 | 40.57654 | -73.82186 | 2878 ft | 239 kts | 214° |
| 2026-05-09 17:21 | 40.56217 | -73.83312 | 3860 ft | 242 kts | 209° |
| 2026-05-09 17:21 | 40.54708 | -73.84292 | 4932 ft | 241 kts | 207° |
| 2026-05-09 17:21 | 40.53193 | -73.85249 | 5962 ft | 242 kts | 207° |
| 2026-05-09 17:22 | 40.51672 | -73.86204 | 6933 ft | 243 kts | 207° |
| 2026-05-09 17:22 | 40.50144 | -73.87165 | 7863 ft | 245 kts | 207° |
| 2026-05-09 17:22 | 40.48647 | -73.88239 | 8760 ft | 247 kts | 219° |
| 2026-05-09 17:22 | 40.47534 | -73.89976 | 9628 ft | 253 kts | 236° |
| 2026-05-09 17:23 | 40.46621 | -73.91960 | 10472 ft | 255 kts | 237° |
| 2026-05-09 17:23 | 40.45712 | -73.93966 | 11309 ft | 257 kts | 238° |
| 2026-05-09 17:23 | 40.44799 | -73.95985 | 12155 ft | 259 kts | 238° |
| 2026-05-09 17:23 | 40.43860 | -73.98058 | 12704 ft | 273 kts | 238° |
| 2026-05-09 17:25 | 40.38456 | -74.09931 | 15549 ft | 317 kts | 240° |
| 2026-05-09 17:25 | 40.37316 | -74.12424 | 16165 ft | 320 kts | 240° |
| 2026-05-09 17:25 | 40.36162 | -74.14940 | 16754 ft | 324 kts | 240° |
| 2026-05-09 17:25 | 40.34997 | -74.17483 | 17325 ft | 327 kts | 240° |
| 2026-05-09 17:26 | 40.33824 | -74.20042 | 17925 ft | 331 kts | 240° |
| 2026-05-09 17:26 | 40.32637 | -74.22628 | 18498 ft | 335 kts | 240° |
| 2026-05-09 17:26 | 40.31433 | -74.25248 | 19080 ft | 338 kts | 240° |
| 2026-05-09 17:26 | 40.30215 | -74.27893 | 19673 ft | 341 kts | 240° |
| 2026-05-09 17:27 | 40.28984 | -74.30567 | 20280 ft | 344 kts | 240° |
| 2026-05-09 17:27 | 40.27743 | -74.33260 | 20867 ft | 347 kts | 240° |
| 2026-05-09 17:27 | 40.26493 | -74.35973 | 21403 ft | 350 kts | 240° |
| 2026-05-09 17:27 | 40.25233 | -74.38708 | 21960 ft | 353 kts | 239° |
| 2026-05-09 17:28 | 40.23959 | -74.41470 | 22568 ft | 356 kts | 239° |
| 2026-05-09 17:28 | 40.22668 | -74.44259 | 23180 ft | 359 kts | 239° |
| 2026-05-09 17:28 | 40.21384 | -74.47075 | 23710 ft | 362 kts | 242° |
| 2026-05-09 17:28 | 40.20420 | -74.50120 | 24169 ft | 365 kts | 252° |
| 2026-05-09 17:29 | 40.19930 | -74.53377 | 24633 ft | 368 kts | 262° |
| 2026-05-09 17:29 | 40.19680 | -74.56717 | 25095 ft | 369 kts | 262° |
| 2026-05-09 17:29 | 40.19425 | -74.60064 | 25547 ft | 370 kts | 262° |
| 2026-05-09 17:29 | 40.19162 | -74.63419 | 26014 ft | 371 kts | 261° |
| 2026-05-09 17:30 | 40.18895 | -74.66779 | 26442 ft | 373 kts | 261° |
| 2026-05-09 17:30 | 40.18625 | -74.70159 | 26869 ft | 374 kts | 261° |
| 2026-05-09 17:30 | 40.18354 | -74.73542 | 27297 ft | 375 kts | 261° |
| 2026-05-09 17:30 | 40.18082 | -74.76943 | 27726 ft | 377 kts | 261° |
| 2026-05-09 17:31 | 40.17810 | -74.80356 | 28160 ft | 378 kts | 261° |
| 2026-05-09 17:31 | 40.17537 | -74.83773 | 28587 ft | 379 kts | 261° |
| 2026-05-09 17:32 | 40.16420 | -74.97598 | 30145 ft | 385 kts | 261° |
| 2026-05-09 17:32 | 40.16233 | -74.99902 | 30363 ft | 386 kts | 261° |
| 2026-05-09 17:32 | 40.15946 | -75.03399 | 30697 ft | 387 kts | 261° |
| 2026-05-09 17:33 | 40.15658 | -75.06894 | 31011 ft | 388 kts | 262° |
| 2026-05-09 17:33 | 40.15369 | -75.10387 | 31454 ft | 385 kts | 262° |
| 2026-05-09 17:33 | 40.15082 | -75.13855 | 31964 ft | 381 kts | 262° |
| 2026-05-09 17:33 | 40.14792 | -75.17327 | 32499 ft | 377 kts | 263° |
| 2026-05-09 17:34 | 40.14509 | -75.20712 | 33034 ft | 373 kts | 263° |
| 2026-05-09 17:35 | 40.12839 | -75.40468 | 35456 ft | 363 kts | 263° |
| 2026-05-09 17:35 | 40.12557 | -75.43742 | 35760 ft | 363 kts | 264° |
| 2026-05-09 17:36 | 40.12275 | -75.47024 | 36062 ft | 363 kts | 264° |
| 2026-05-09 17:36 | 40.11992 | -75.50297 | 36337 ft | 363 kts | 264° |
| 2026-05-09 17:36 | 40.11712 | -75.53541 | 36583 ft | 364 kts | 264° |
| 2026-05-09 17:36 | 40.11427 | -75.56831 | 36836 ft | 365 kts | 264° |
| 2026-05-09 17:37 | 40.11137 | -75.60119 | 37089 ft | 365 kts | 264° |
| 2026-05-09 17:37 | 40.10847 | -75.63422 | 37340 ft | 366 kts | 264° |
| 2026-05-09 17:37 | 40.10559 | -75.66719 | 37594 ft | 366 kts | 264° |
| 2026-05-09 17:37 | 40.10269 | -75.70026 | 37854 ft | 367 kts | 264° |
| 2026-05-09 17:38 | 40.09977 | -75.73344 | 37958 ft | 369 kts | 264° |
| 2026-05-09 17:38 | 40.09685 | -75.76669 | 37969 ft | 369 kts | 264° |
| 2026-05-09 17:39 | 40.08801 | -75.86691 | 37966 ft | 370 kts | 264° |
| 2026-05-09 17:39 | 40.08198 | -75.93367 | 37968 ft | 370 kts | 264° |
| 2026-05-09 17:40 | 40.07587 | -76.00041 | 37967 ft | 370 kts | 264° |
| 2026-05-09 17:40 | 40.06983 | -76.06729 | 37971 ft | 371 kts | 264° |
| 2026-05-09 17:41 | 40.06373 | -76.13410 | 37943 ft | 370 kts | 264° |
| 2026-05-09 17:41 | 40.05760 | -76.20061 | 37992 ft | 369 kts | 264° |
| 2026-05-09 17:42 | 40.05145 | -76.26706 | 37984 ft | 368 kts | 264° |
| 2026-05-09 17:42 | 40.04528 | -76.33342 | 37981 ft | 368 kts | 264° |
| 2026-05-09 17:43 | 40.03905 | -76.39967 | 37981 ft | 368 kts | 264° |
| 2026-05-09 17:43 | 40.03282 | -76.46586 | 37989 ft | 367 kts | 265° |
| 2026-05-09 17:44 | 40.03505 | -76.53208 | 37983 ft | 366 kts | 275° |
| 2026-05-09 17:44 | 40.04052 | -76.59814 | 37977 ft | 366 kts | 275° |
| 2026-05-09 17:45 | 40.04591 | -76.66417 | 37972 ft | 366 kts | 275° |
| 2026-05-09 17:45 | 40.05131 | -76.73012 | 37970 ft | 366 kts | 275° |
| 2026-05-09 17:46 | 40.05660 | -76.79619 | 37990 ft | 366 kts | 275° |
| 2026-05-09 17:46 | 40.06182 | -76.86220 | 37975 ft | 366 kts | 275° |
| 2026-05-09 17:47 | 40.06710 | -76.92808 | 37979 ft | 365 kts | 275° |
| 2026-05-09 17:47 | 40.07235 | -76.99394 | 37973 ft | 364 kts | 275° |
| 2026-05-09 17:48 | 40.07750 | -77.05965 | 37973 ft | 364 kts | 275° |
| 2026-05-09 17:48 | 40.08254 | -77.12535 | 37969 ft | 364 kts | 275° |
| 2026-05-09 17:49 | 40.08540 | -77.16299 | 37970 ft | 364 kts | 275° |
| 2026-05-09 17:49 | 40.08861 | -77.20455 | 37965 ft | 363 kts | 275° |
| 2026-05-09 17:50 | 40.09370 | -77.27010 | 37972 ft | 362 kts | 275° |
| 2026-05-09 17:50 | 40.10116 | -77.36824 | 37965 ft | 362 kts | 275° |
| 2026-05-09 17:51 | 40.10606 | -77.43355 | 37963 ft | 361 kts | 275° |
| 2026-05-09 17:51 | 40.11084 | -77.49746 | 37961 ft | 361 kts | 275° |
| 2026-05-09 17:52 | 40.11563 | -77.56267 | 37954 ft | 361 kts | 275° |
| 2026-05-09 17:52 | 40.12038 | -77.62788 | 37964 ft | 361 kts | 275° |
| 2026-05-09 17:53 | 40.12509 | -77.69316 | 37960 ft | 360 kts | 275° |
| 2026-05-09 17:53 | 40.12979 | -77.75819 | 37956 ft | 359 kts | 275° |
| 2026-05-09 17:54 | 40.13442 | -77.82318 | 37943 ft | 359 kts | 275° |
| 2026-05-09 17:54 | 40.13708 | -77.88821 | 37940 ft | 359 kts | 271° |
| 2026-05-09 17:55 | 40.13734 | -77.95346 | 37940 ft | 359 kts | 271° |
| 2026-05-09 17:55 | 40.13741 | -78.01868 | 37940 ft | 358 kts | 271° |
| 2026-05-09 17:56 | 40.13791 | -78.08371 | 37940 ft | 358 kts | 271° |
| 2026-05-09 17:57 | 40.13893 | -78.18121 | 37935 ft | 358 kts | 271° |
| 2026-05-09 17:57 | 40.13952 | -78.24625 | 37935 ft | 358 kts | 271° |
| 2026-05-09 17:58 | 40.14007 | -78.31124 | 37932 ft | 358 kts | 271° |
| 2026-05-09 17:58 | 40.14051 | -78.37620 | 37934 ft | 357 kts | 271° |
| 2026-05-09 17:59 | 40.14100 | -78.44118 | 37934 ft | 357 kts | 271° |
| 2026-05-09 17:59 | 40.14144 | -78.50614 | 37936 ft | 358 kts | 271° |
| 2026-05-09 18:00 | 40.14183 | -78.57110 | 37930 ft | 358 kts | 271° |
| 2026-05-09 18:00 | 40.14220 | -78.63611 | 37932 ft | 357 kts | 271° |
| 2026-05-09 18:01 | 40.14250 | -78.70097 | 37929 ft | 357 kts | 271° |
| 2026-05-09 18:01 | 40.14276 | -78.76595 | 37917 ft | 357 kts | 271° |
| 2026-05-09 18:02 | 40.14302 | -78.83095 | 37919 ft | 357 kts | 271° |
| 2026-05-09 18:02 | 40.14323 | -78.89587 | 37919 ft | 357 kts | 271° |
| 2026-05-09 18:03 | 40.14338 | -78.96068 | 37918 ft | 357 kts | 271° |
| 2026-05-09 18:03 | 40.14351 | -79.02554 | 37916 ft | 357 kts | 271° |
| 2026-05-09 18:04 | 40.14354 | -79.09041 | 37917 ft | 357 kts | 271° |
| 2026-05-09 18:04 | 40.14362 | -79.15537 | 37918 ft | 357 kts | 271° |
| 2026-05-09 18:05 | 40.14467 | -79.22026 | 37921 ft | 357 kts | 272° |
| 2026-05-09 18:05 | 40.14659 | -79.28523 | 37922 ft | 358 kts | 272° |
| 2026-05-09 18:06 | 40.14834 | -79.34979 | 37923 ft | 358 kts | 272° |
| 2026-05-09 18:06 | 40.14990 | -79.41521 | 37925 ft | 358 kts | 272° |
| 2026-05-09 18:07 | 40.15127 | -79.48035 | 37940 ft | 359 kts | 272° |
| 2026-05-09 18:07 | 40.15268 | -79.54557 | 37934 ft | 359 kts | 272° |
| 2026-05-09 18:08 | 40.15406 | -79.61092 | 37926 ft | 360 kts | 272° |
| 2026-05-09 18:08 | 40.15541 | -79.67590 | 37925 ft | 360 kts | 272° |
| 2026-05-09 18:09 | 40.15666 | -79.74132 | 37916 ft | 360 kts | 272° |
| 2026-05-09 18:09 | 40.15788 | -79.80720 | 37900 ft | 360 kts | 272° |
| 2026-05-09 18:10 | 40.15910 | -79.87268 | 37911 ft | 360 kts | 272° |
| 2026-05-09 18:10 | 40.16030 | -79.93769 | 37915 ft | 360 kts | 272° |
| 2026-05-09 18:11 | 40.16145 | -80.00360 | 37917 ft | 360 kts | 272° |
| 2026-05-09 18:11 | 40.16257 | -80.06854 | 37944 ft | 360 kts | 272° |
| 2026-05-09 18:12 | 40.16366 | -80.13389 | 37952 ft | 360 kts | 272° |
| 2026-05-09 18:12 | 40.16468 | -80.19929 | 37962 ft | 360 kts | 272° |
| 2026-05-09 18:13 | 40.16568 | -80.26469 | 37961 ft | 360 kts | 272° |
| 2026-05-09 18:13 | 40.16665 | -80.33009 | 37957 ft | 360 kts | 272° |
| 2026-05-09 18:14 | 40.16760 | -80.39556 | 37952 ft | 360 kts | 272° |
| 2026-05-09 18:14 | 40.16833 | -80.45034 | 37947 ft | 360 kts | 272° |
| 2026-05-09 18:15 | 40.16920 | -80.51565 | 37937 ft | 360 kts | 272° |
| 2026-05-09 18:15 | 40.17006 | -80.58106 | 37933 ft | 359 kts | 272° |
| 2026-05-09 18:16 | 40.17086 | -80.64623 | 37917 ft | 358 kts | 272° |
| 2026-05-09 18:16 | 40.17159 | -80.71123 | 37914 ft | 357 kts | 272° |
| 2026-05-09 18:17 | 40.17230 | -80.77626 | 37917 ft | 358 kts | 272° |
| 2026-05-09 18:17 | 40.17298 | -80.84130 | 37917 ft | 358 kts | 272° |
| 2026-05-09 18:18 | 40.17363 | -80.90583 | 37916 ft | 357 kts | 272° |
| 2026-05-09 18:18 | 40.17419 | -80.97064 | 37916 ft | 356 kts | 272° |
| 2026-05-09 18:19 | 40.17403 | -81.03527 | 37918 ft | 355 kts | 271° |
| 2026-05-09 18:19 | 40.17278 | -81.13199 | 37912 ft | 354 kts | 271° |
| 2026-05-09 18:20 | 40.17205 | -81.19637 | 37904 ft | 354 kts | 271° |
| 2026-05-09 18:20 | 40.17139 | -81.26062 | 37900 ft | 354 kts | 271° |
| 2026-05-09 18:21 | 40.17060 | -81.32489 | 37892 ft | 353 kts | 271° |
| 2026-05-09 18:21 | 40.16980 | -81.38896 | 37897 ft | 352 kts | 271° |
| 2026-05-09 18:22 | 40.16899 | -81.45290 | 37896 ft | 352 kts | 271° |
| 2026-05-09 18:22 | 40.16817 | -81.51679 | 37894 ft | 351 kts | 271° |
| 2026-05-09 18:23 | 40.16731 | -81.58055 | 37841 ft | 351 kts | 271° |
| 2026-05-09 18:23 | 40.16794 | -81.64409 | 37867 ft | 349 kts | 276° |
| 2026-05-09 18:24 | 40.17181 | -81.70724 | 37859 ft | 348 kts | 275° |
| 2026-05-09 18:25 | 40.17737 | -81.80187 | 37869 ft | 348 kts | 275° |
| 2026-05-09 18:25 | 40.18107 | -81.86502 | 37871 ft | 348 kts | 275° |
| 2026-05-09 18:26 | 40.18477 | -81.92817 | 37870 ft | 348 kts | 275° |
| 2026-05-09 18:26 | 40.18842 | -81.99126 | 37868 ft | 348 kts | 275° |
| 2026-05-09 18:27 | 40.19201 | -82.05442 | 37871 ft | 348 kts | 275° |
| 2026-05-09 18:27 | 40.19560 | -82.11762 | 37871 ft | 348 kts | 275° |
| 2026-05-09 18:28 | 40.19909 | -82.18070 | 37869 ft | 348 kts | 275° |
| 2026-05-09 18:28 | 40.20257 | -82.24377 | 37868 ft | 348 kts | 275° |
| 2026-05-09 18:29 | 40.20607 | -82.30693 | 37868 ft | 348 kts | 275° |
| 2026-05-09 18:29 | 40.20952 | -82.37005 | 37872 ft | 348 kts | 275° |
| 2026-05-09 18:30 | 40.21296 | -82.43332 | 37858 ft | 349 kts | 275° |
| 2026-05-09 18:30 | 40.21634 | -82.49662 | 37858 ft | 349 kts | 275° |
| 2026-05-09 18:31 | 40.21965 | -82.55998 | 37858 ft | 349 kts | 275° |
| 2026-05-09 18:31 | 40.22296 | -82.62340 | 37862 ft | 349 kts | 275° |
| 2026-05-09 18:32 | 40.22620 | -82.68686 | 37868 ft | 350 kts | 275° |
| 2026-05-09 18:32 | 40.22942 | -82.75037 | 37869 ft | 350 kts | 275° |
| 2026-05-09 18:33 | 40.23266 | -82.81385 | 37850 ft | 350 kts | 275° |
| 2026-05-09 18:33 | 40.23586 | -82.87745 | 37859 ft | 351 kts | 275° |
| 2026-05-09 18:34 | 40.23905 | -82.94122 | 37867 ft | 351 kts | 275° |
| 2026-05-09 18:34 | 40.24215 | -83.00495 | 37866 ft | 351 kts | 275° |
| 2026-05-09 18:35 | 40.24520 | -83.06878 | 37869 ft | 351 kts | 275° |
| 2026-05-09 18:35 | 40.24825 | -83.13259 | 37875 ft | 352 kts | 275° |
| 2026-05-09 18:36 | 40.25124 | -83.19647 | 37862 ft | 352 kts | 275° |
| 2026-05-09 18:36 | 40.25425 | -83.26051 | 37860 ft | 352 kts | 275° |
| 2026-05-09 18:37 | 40.25722 | -83.32458 | 37864 ft | 353 kts | 275° |
| 2026-05-09 18:37 | 40.26010 | -83.38872 | 37865 ft | 353 kts | 275° |
| 2026-05-09 18:38 | 40.26294 | -83.45288 | 37912 ft | 353 kts | 275° |
| 2026-05-09 18:38 | 40.26579 | -83.51714 | 37946 ft | 353 kts | 275° |
| 2026-05-09 18:40 | 40.27559 | -83.74219 | 38051 ft | 354 kts | 275° |
| 2026-05-09 18:40 | 40.27699 | -83.77434 | 38062 ft | 354 kts | 275° |
| 2026-05-09 18:41 | 40.27972 | -83.83884 | 38067 ft | 354 kts | 275° |
| 2026-05-09 18:41 | 40.28230 | -83.90326 | 37860 ft | 354 kts | 275° |
| 2026-05-09 18:42 | 40.28483 | -83.96767 | 37848 ft | 355 kts | 275° |
| 2026-05-09 18:42 | 40.28740 | -84.03218 | 37853 ft | 355 kts | 275° |
| 2026-05-09 18:43 | 40.28605 | -84.09700 | 37854 ft | 356 kts | 270° |
| 2026-05-09 18:43 | 40.28390 | -84.16184 | 37843 ft | 357 kts | 270° |
| 2026-05-09 18:44 | 40.28172 | -84.22677 | 37839 ft | 357 kts | 270° |
| 2026-05-09 18:44 | 40.27949 | -84.29164 | 37838 ft | 357 kts | 270° |
| 2026-05-09 18:45 | 40.27724 | -84.35661 | 37835 ft | 357 kts | 270° |
| 2026-05-09 18:45 | 40.27499 | -84.42147 | 37607 ft | 355 kts | 270° |
| 2026-05-09 18:45 | 40.27384 | -84.45377 | 36985 ft | 355 kts | 270° |
| 2026-05-09 18:46 | 40.27268 | -84.48608 | 36339 ft | 355 kts | 271° |
| 2026-05-09 18:46 | 40.27153 | -84.51839 | 35695 ft | 356 kts | 271° |
| 2026-05-09 18:46 | 40.27036 | -84.55078 | 35055 ft | 356 kts | 271° |
| 2026-05-09 18:46 | 40.26914 | -84.58321 | 34411 ft | 357 kts | 271° |
| 2026-05-09 18:47 | 40.26792 | -84.61564 | 33750 ft | 357 kts | 272° |
| 2026-05-09 18:47 | 40.26667 | -84.64799 | 33136 ft | 354 kts | 271° |
| 2026-05-09 18:47 | 40.26541 | -84.68006 | 32557 ft | 351 kts | 271° |
| 2026-05-09 18:47 | 40.26418 | -84.71179 | 32016 ft | 348 kts | 271° |
| 2026-05-09 18:48 | 40.26299 | -84.74337 | 31471 ft | 345 kts | 271° |
| 2026-05-09 18:48 | 40.26187 | -84.77458 | 30923 ft | 342 kts | 271° |
| 2026-05-09 18:48 | 40.26076 | -84.80561 | 30386 ft | 340 kts | 271° |
| 2026-05-09 18:48 | 40.25965 | -84.83638 | 29855 ft | 337 kts | 271° |
| 2026-05-09 18:49 | 40.25853 | -84.86697 | 29255 ft | 335 kts | 271° |
| 2026-05-09 18:49 | 40.25738 | -84.89727 | 28674 ft | 333 kts | 271° |
| 2026-05-09 18:49 | 40.25621 | -84.92746 | 28107 ft | 331 kts | 271° |
| 2026-05-09 18:49 | 40.25506 | -84.95742 | 27561 ft | 329 kts | 271° |
| 2026-05-09 18:50 | 40.25391 | -84.98721 | 27035 ft | 327 kts | 271° |
| 2026-05-09 18:50 | 40.25275 | -85.01685 | 26536 ft | 325 kts | 271° |
| 2026-05-09 18:50 | 40.25158 | -85.04629 | 26051 ft | 324 kts | 271° |
| 2026-05-09 18:50 | 40.25041 | -85.07566 | 25576 ft | 323 kts | 271° |
| 2026-05-09 18:51 | 40.24923 | -85.10498 | 25142 ft | 322 kts | 271° |
| 2026-05-09 18:51 | 40.24805 | -85.13424 | 24712 ft | 321 kts | 271° |
| 2026-05-09 18:51 | 40.24689 | -85.16332 | 24284 ft | 320 kts | 271° |
| 2026-05-09 18:51 | 40.24575 | -85.19227 | 23857 ft | 318 kts | 271° |
| 2026-05-09 18:52 | 40.24458 | -85.22120 | 23423 ft | 317 kts | 271° |
| 2026-05-09 18:52 | 40.24339 | -85.24996 | 22916 ft | 316 kts | 271° |
| 2026-05-09 18:52 | 40.24221 | -85.27860 | 22414 ft | 315 kts | 271° |
| 2026-05-09 18:52 | 40.24099 | -85.30713 | 21919 ft | 313 kts | 270° |
| 2026-05-09 18:53 | 40.23975 | -85.33551 | 21426 ft | 312 kts | 270° |
| 2026-05-09 18:53 | 40.23854 | -85.36375 | 20927 ft | 310 kts | 270° |
| 2026-05-09 18:53 | 40.23531 | -85.39179 | 20443 ft | 314 kts | 259° |
| 2026-05-09 18:53 | 40.22705 | -85.41838 | 19955 ft | 320 kts | 248° |
| 2026-05-09 18:54 | 40.21606 | -85.44371 | 19453 ft | 319 kts | 247° |
| 2026-05-09 18:54 | 40.20513 | -85.46886 | 18981 ft | 318 kts | 247° |
| 2026-05-09 18:54 | 40.19793 | -85.48547 | 18683 ft | 317 kts | 247° |
| 2026-05-09 18:54 | 40.18348 | -85.51891 | 18065 ft | 315 kts | 247° |
| 2026-05-09 18:55 | 40.17636 | -85.53535 | 17709 ft | 314 kts | 246° |
| 2026-05-09 18:55 | 40.16558 | -85.56015 | 17201 ft | 312 kts | 247° |
| 2026-05-09 18:55 | 40.15548 | -85.58515 | 16692 ft | 310 kts | 248° |
| 2026-05-09 18:55 | 40.14568 | -85.61006 | 16207 ft | 308 kts | 248° |
| 2026-05-09 18:56 | 40.13593 | -85.63499 | 15735 ft | 306 kts | 248° |
| 2026-05-09 18:56 | 40.12634 | -85.65974 | 15283 ft | 305 kts | 248° |
| 2026-05-09 18:56 | 40.11687 | -85.68439 | 14831 ft | 303 kts | 248° |
| 2026-05-09 18:56 | 40.10750 | -85.70895 | 14386 ft | 301 kts | 248° |
| 2026-05-09 18:57 | 40.09824 | -85.73346 | 13955 ft | 300 kts | 248° |
| 2026-05-09 18:57 | 40.08912 | -85.75787 | 13534 ft | 298 kts | 248° |
| 2026-05-09 18:57 | 40.08012 | -85.78214 | 13068 ft | 296 kts | 249° |
| 2026-05-09 18:57 | 40.07119 | -85.80626 | 12638 ft | 294 kts | 249° |
| 2026-05-09 18:58 | 40.06081 | -85.82898 | 12418 ft | 291 kts | 234° |
| 2026-05-09 18:58 | 40.04684 | -85.84771 | 12288 ft | 283 kts | 231° |
| 2026-05-09 18:58 | 40.03305 | -85.86556 | 12018 ft | 278 kts | 231° |
| 2026-05-09 18:58 | 40.01946 | -85.88334 | 11680 ft | 275 kts | 232° |
| 2026-05-09 18:59 | 40.00625 | -85.90126 | 11342 ft | 273 kts | 232° |
| 2026-05-09 18:59 | 39.99325 | -85.91917 | 11008 ft | 271 kts | 232° |
| 2026-05-09 18:59 | 39.98034 | -85.93701 | 10618 ft | 271 kts | 232° |
| 2026-05-09 18:59 | 39.96743 | -85.95478 | 10008 ft | 270 kts | 232° |
| 2026-05-09 19:00 | 39.95520 | -85.97310 | 9285 ft | 265 kts | 238° |
| 2026-05-09 19:00 | 39.93074 | -86.00936 | 7898 ft | 267 kts | 229° |
| 2026-05-09 19:00 | 39.91741 | -86.02626 | 7200 ft | 267 kts | 229° |
| 2026-05-09 19:01 | 39.90414 | -86.04322 | 6510 ft | 267 kts | 228° |
| 2026-05-09 19:01 | 39.89095 | -86.06019 | 5811 ft | 266 kts | 228° |
| 2026-05-09 19:01 | 39.87780 | -86.07711 | 5150 ft | 264 kts | 227° |
| 2026-05-09 19:01 | 39.86481 | -86.09377 | 4736 ft | 249 kts | 227° |
| 2026-05-09 19:02 | 39.85317 | -86.10868 | 4414 ft | 222 kts | 227° |
| 2026-05-09 19:02 | 39.84277 | -86.12204 | 4132 ft | 199 kts | 226° |
| 2026-05-09 19:02 | 39.83339 | -86.13408 | 3872 ft | 183 kts | 226° |
| 2026-05-09 19:02 | 39.82451 | -86.14549 | 3660 ft | 173 kts | 226° |
| 2026-05-09 19:03 | 39.81643 | -86.15584 | 3426 ft | 154 kts | 225° |
| 2026-05-09 19:03 | 39.80917 | -86.16515 | 3232 ft | 141 kts | 225° |
| 2026-05-09 19:03 | 39.80258 | -86.17359 | 3071 ft | 125 kts | 224° |
| 2026-05-09 19:03 | 39.79637 | -86.18154 | 2904 ft | 125 kts | 225° |
| 2026-05-09 19:04 | 39.79026 | -86.18938 | 2743 ft | 125 kts | 225° |
| 2026-05-09 19:04 | 39.78412 | -86.19725 | 2568 ft | 123 kts | 225° |
| 2026-05-09 19:04 | 39.77820 | -86.20497 | 2398 ft | 120 kts | 225° |
| 2026-05-09 19:04 | 39.77215 | -86.21257 | 2261 ft | 122 kts | 224° |
| 2026-05-09 19:05 | 39.76611 | -86.22027 | 2079 ft | 120 kts | 224° |
| 2026-05-09 19:05 | 39.76010 | -86.22795 | 1921 ft | 121 kts | 225° |
| 2026-05-09 19:05 | 39.75410 | -86.23569 | 1750 ft | 122 kts | 224° |
| 2026-05-09 19:05 | 39.74802 | -86.24349 | 1553 ft | 125 kts | 223° |
| 2026-05-09 19:06 | 39.74171 | -86.25142 | 1410 ft | 124 kts | 226° |
| 2026-05-09 19:06 | 39.73544 | -86.25942 | 1219 ft | 131 kts | 221° |
| 2026-05-09 19:06 | 39.72906 | -86.26775 | 1031 ft | 127 kts | 227° |
| 2026-05-09 19:06 | 39.72340 | -86.27570 | 1846 ft | 118 kts | 226° |
| 2026-05-09 19:07 | 39.71757 | -86.28365 | 2595 ft | 112 kts | 225° |
| 2026-05-09 19:07 | 39.71206 | -86.29040 | 3328 ft | 109 kts | 226° |
| 2026-05-09 19:07 | 39.70676 | -86.29807 | 3858 ft | 120 kts | 236° |
| 2026-05-09 19:07 | 39.70138 | -86.30677 | 4565 ft | 124 kts | 230° |
| 2026-05-09 19:08 | 39.69558 | -86.31449 | 5393 ft | 114 kts | 234° |
| 2026-05-09 19:08 | 39.69036 | -86.32238 | 6063 ft | 117 kts | 237° |
| 2026-05-09 19:08 | 39.68548 | -86.33128 | 6585 ft | 131 kts | 232° |
| 2026-05-09 19:08 | 39.67746 | -86.34003 | 6933 ft | 164 kts | 227° |
| 2026-05-09 19:09 | 39.66864 | -86.34986 | 7374 ft | 159 kts | 228° |
| 2026-05-09 19:09 | 39.66082 | -86.35886 | 7688 ft | 146 kts | 230° |
| 2026-05-09 19:09 | 39.65239 | -86.36905 | 7451 ft | 199 kts | 230° |
| 2026-05-09 19:09 | 39.64165 | -86.38293 | 7824 ft | 238 kts | 230° |
| 2026-05-09 19:10 | 39.62973 | -86.39849 | 8094 ft | 236 kts | 230° |
| 2026-05-09 19:10 | 39.61802 | -86.41246 | 8124 ft | 222 kts | 226° |
| 2026-05-09 19:10 | 39.60661 | -86.42504 | 8113 ft | 210 kts | 227° |
| 2026-05-09 19:10 | 39.59564 | -86.43702 | 8047 ft | 202 kts | 226° |
| 2026-05-09 19:11 | 39.58358 | -86.44523 | 8038 ft | 206 kts | 186° |
| 2026-05-09 19:11 | 39.57002 | -86.43787 | 7834 ft | 227 kts | 136° |
| 2026-05-09 19:11 | 39.56418 | -86.41889 | 7417 ft | 236 kts | 85° |
| 2026-05-09 19:11 | 39.57031 | -86.39990 | 6929 ft | 232 kts | 41° |
| 2026-05-09 19:12 | 39.58428 | -86.38877 | 6093 ft | 242 kts | 13° |
| 2026-05-09 19:12 | 39.60019 | -86.38403 | 5419 ft | 221 kts | 358° |
| 2026-05-09 19:12 | 39.61400 | -86.38592 | 5038 ft | 185 kts | 339° |
| 2026-05-09 19:12 | 39.62672 | -86.38742 | 4510 ft | 185 kts | 0° |
| 2026-05-09 19:13 | 39.63842 | -86.38243 | 4192 ft | 173 kts | 22° |
| 2026-05-09 19:13 | 39.64905 | -86.38215 | 3763 ft | 145 kts | 318° |
| 2026-05-09 19:13 | 39.65309 | -86.39223 | 3253 ft | 129 kts | 256° |
| 2026-05-09 19:13 | 39.64682 | -86.40041 | 2614 ft | 144 kts | 190° |
| 2026-05-09 19:14 | 39.63855 | -86.39507 | 2558 ft | 148 kts | 121° |
| 2026-05-09 19:14 | 39.63990 | -86.38225 | 2354 ft | 154 kts | 58° |
| 2026-05-09 19:14 | 39.64741 | -86.37203 | 2218 ft | 158 kts | 44° |
| 2026-05-09 19:14 | 39.65539 | -86.36238 | 1965 ft | 155 kts | 43° |
| 2026-05-09 19:15 | 39.66327 | -86.35265 | 1814 ft | 159 kts | 46° |
| 2026-05-09 19:15 | 39.67080 | -86.34237 | 1675 ft | 152 kts | 45° |
| 2026-05-09 19:15 | 39.67816 | -86.33266 | 1405 ft | 156 kts | 46° |
| 2026-05-09 19:15 | 39.68616 | -86.32257 | 1196 ft | 163 kts | 43° |
| 2026-05-09 19:16 | 39.69427 | -86.31223 | 990 ft | 160 kts | 43° |
| 2026-05-09 19:16 | 39.70181 | -86.30245 | 792 ft | 143 kts | 44° |
| 2026-05-09 19:16 | 39.70828 | -86.29419 | 783 ft | 119 kts | 45° |
| 2026-05-09 19:16 | 39.71283 | -86.28840 | 783 ft | 72 kts | 45° |
| 2026-05-09 19:17 | 39.71577 | -86.28458 | 781 ft | 37 kts | 44° |
| 2026-05-09 19:17 | 39.71664 | -86.28369 | 780 ft | 11 kts | 8° |
| 2026-05-09 19:17 | 39.71734 | -86.28435 | 780 ft | 14 kts | 313° |
| 2026-05-09 19:17 | 39.71768 | -86.28545 | 781 ft | 14 kts | 233° |
| 2026-05-09 19:18 | 39.71680 | -86.28634 | 781 ft | 17 kts | 219° |
| 2026-05-09 19:18 | 39.71588 | -86.28746 | 781 ft | 17 kts | 229° |
| 2026-05-09 19:18 | 39.71609 | -86.28866 | 781 ft | 15 kts | 314° |
| 2026-05-09 19:18 | 39.71616 | -86.28989 | 781 ft | 17 kts | 232° |
| 2026-05-09 19:19 | 39.71532 | -86.29113 | 781 ft | 19 kts | 230° |
| 2026-05-09 19:19 | 39.71442 | -86.29254 | 785 ft | 19 kts | 234° |
| 2026-05-09 19:19 | 39.71476 | -86.29357 | 781 ft | 10 kts | 318° |
| 2026-05-09 19:19 | 39.71504 | -86.29400 | 781 ft | 2 kts | 305° |
| 2026-05-09 19:20 | 39.71509 | -86.29410 | 781 ft | 0 kts | 306° |
| 2026-05-09 19:22 | 39.71509 | -86.29411 | 781 ft | 0 kts | 306° |